createdAt,value
2022-08-21T00:01:39.412Z,22.50
2022-08-21T00:04:10.975Z,22.50
2022-08-21T00:06:41.715Z,22.40
2022-08-21T00:09:09.835Z,22.40
2022-08-21T00:11:38.927Z,22.40
2022-08-21T00:14:07.302Z,22.30
2022-08-21T00:16:34.593Z,22.30
2022-08-21T00:19:01.680Z,22.30
2022-08-21T00:21:28.376Z,22.30
2022-08-21T00:23:55.061Z,22.40
2022-08-21T00:26:21.695Z,22.30
2022-08-21T00:28:49.799Z,22.30
2022-08-21T00:31:17.404Z,22.20
2022-08-21T00:33:44.510Z,22.20
2022-08-21T00:36:11.592Z,22.20
2022-08-21T00:38:38.226Z,22.20
2022-08-21T00:41:37.910Z,22.20
2022-08-21T00:43:55.335Z,22.20
2022-08-21T00:46:22.546Z,22.20
2022-08-21T00:48:58.909Z,22.20
2022-08-21T00:51:48.678Z,22.20
2022-08-21T00:54:18.338Z,22.20
2022-08-21T00:56:48.836Z,22.10
2022-08-21T00:59:17.814Z,22.10
2022-08-21T01:01:44.712Z,22.20
2022-08-21T01:04:12.452Z,22.10
2022-08-21T01:06:39.108Z,22.10
2022-08-21T01:09:05.872Z,22.10
2022-08-21T01:11:32.522Z,22.00
2022-08-21T01:13:59.552Z,22.00
2022-08-21T01:16:26.398Z,22.00
2022-08-21T01:18:53.216Z,22.00
2022-08-21T01:21:27.979Z,22.00
2022-08-21T01:23:57.210Z,22.00
2022-08-21T01:26:34.510Z,22.00
2022-08-21T01:29:08.025Z,22.00
2022-08-21T01:31:34.920Z,22.00
2022-08-21T01:34:01.782Z,22.00
2022-08-21T01:36:28.848Z,22.00
2022-08-21T01:38:56.508Z,22.00
2022-08-21T01:41:23.172Z,21.90
2022-08-21T01:43:50.529Z,21.90
2022-08-21T01:46:17.295Z,22.00
2022-08-21T01:48:44.454Z,22.00
2022-08-21T01:51:13.162Z,22.00
2022-08-21T01:53:40.064Z,21.90
2022-08-21T01:56:12.433Z,21.90
2022-08-21T01:58:41.211Z,21.90
2022-08-21T02:01:07.938Z,21.90
2022-08-21T02:03:35.845Z,21.90
2022-08-21T02:06:05.237Z,21.80
2022-08-21T02:08:32.752Z,21.80
2022-08-21T02:11:00.087Z,21.80
2022-08-21T02:13:27.126Z,21.90
2022-08-21T02:15:53.832Z,21.80
2022-08-21T02:18:20.508Z,21.80
2022-08-21T02:20:55.729Z,21.90
2022-08-21T02:23:26.916Z,21.90
2022-08-21T02:25:55.836Z,21.90
2022-08-21T02:28:22.706Z,21.90
2022-08-21T02:30:50.391Z,21.90
2022-08-21T02:33:17.946Z,21.90
2022-08-21T02:35:46.598Z,21.90
2022-08-21T02:38:18.411Z,21.90
2022-08-21T02:40:47.957Z,21.90
2022-08-21T02:43:16.239Z,21.90
2022-08-21T02:45:44.737Z,21.90
2022-08-21T02:48:14.690Z,21.90
2022-08-21T02:50:47.519Z,21.80
2022-08-21T02:53:17.193Z,21.80
2022-08-21T02:55:47.359Z,21.80
2022-08-21T02:58:15.834Z,21.80
2022-08-21T03:00:44.568Z,21.80
2022-08-21T03:03:11.503Z,21.80
2022-08-21T03:05:38.587Z,21.80
2022-08-21T03:08:10.375Z,21.80
2022-08-21T03:10:40.208Z,21.80
2022-08-21T03:13:07.560Z,21.80
2022-08-21T03:15:34.524Z,21.70
2022-08-21T03:18:02.417Z,21.70
2022-08-21T03:20:29.881Z,21.70
2022-08-21T03:22:56.638Z,21.70
2022-08-21T03:25:33.720Z,21.70
2022-08-21T03:28:12.969Z,21.60
2022-08-21T03:30:42.471Z,21.50
2022-08-21T03:33:12.205Z,21.50
2022-08-21T03:35:39.906Z,21.60
2022-08-21T03:38:06.565Z,21.70
2022-08-21T03:40:33.214Z,21.60
2022-08-21T03:42:59.887Z,21.60
2022-08-21T03:45:27.081Z,21.60
2022-08-21T03:47:53.849Z,21.60
2022-08-21T03:50:20.581Z,21.70
2022-08-21T03:52:47.196Z,21.70
2022-08-21T03:55:13.861Z,21.70
2022-08-21T03:57:40.559Z,21.70
2022-08-21T04:00:10.731Z,21.70
2022-08-21T04:02:37.340Z,21.60
2022-08-21T04:05:04.456Z,21.60
2022-08-21T04:07:31.171Z,21.60
2022-08-21T04:09:58.116Z,21.60
2022-08-21T04:12:24.796Z,21.60
2022-08-21T04:14:54.482Z,21.50
2022-08-21T04:17:21.144Z,21.50
2022-08-21T04:19:53.100Z,21.50
2022-08-21T04:22:20.369Z,21.50
2022-08-21T04:24:47.026Z,21.50
2022-08-21T04:27:13.660Z,21.50
2022-08-21T04:29:40.327Z,21.50
2022-08-21T04:32:07.316Z,21.50
2022-08-21T04:34:34.076Z,21.50
2022-08-21T04:37:00.689Z,21.50
2022-08-21T04:39:29.464Z,21.50
2022-08-21T04:41:56.854Z,21.60
2022-08-21T04:44:24.490Z,21.60
2022-08-21T04:46:51.115Z,21.60
2022-08-21T04:49:18.259Z,21.60
2022-08-21T04:51:45.908Z,21.70
2022-08-21T04:54:19.843Z,21.70
2022-08-21T04:56:57.140Z,21.70
2022-08-21T04:59:31.933Z,21.70
2022-08-21T05:02:00.247Z,21.60
2022-08-21T05:04:32.119Z,21.60
2022-08-21T05:07:02.856Z,21.60
2022-08-21T05:09:30.095Z,21.50
2022-08-21T05:11:57.342Z,21.60
2022-08-21T05:14:24.209Z,21.60
2022-08-21T05:16:50.844Z,21.60
2022-08-21T05:19:17.473Z,21.60
2022-08-21T05:21:46.054Z,21.60
2022-08-21T05:24:12.737Z,21.60
2022-08-21T05:26:46.065Z,21.60
2022-08-21T05:29:15.651Z,21.60
2022-08-21T05:31:43.765Z,21.60
2022-08-21T05:34:10.451Z,21.60
2022-08-21T05:36:37.133Z,21.60
2022-08-21T05:39:04.329Z,21.60
2022-08-21T05:41:31.027Z,21.60
2022-08-21T05:44:00.995Z,21.70
2022-08-21T05:46:27.848Z,21.70
2022-08-21T05:48:54.611Z,21.70
2022-08-21T05:51:21.355Z,21.60
2022-08-21T05:53:48.361Z,21.70
2022-08-21T05:56:15.293Z,21.60
2022-08-21T05:58:42.500Z,21.70
2022-08-21T06:01:10.012Z,21.60
2022-08-21T06:03:40.397Z,21.70
2022-08-21T06:06:07.416Z,21.60
2022-08-21T06:08:35.079Z,21.70
2022-08-21T06:11:04.010Z,21.70
2022-08-21T06:13:30.656Z,21.70
2022-08-21T06:16:15.844Z,21.70
2022-08-21T06:18:44.993Z,21.70
2022-08-21T06:21:12.579Z,21.50
2022-08-21T06:23:39.299Z,21.50
2022-08-21T06:26:08.076Z,21.60
2022-08-21T06:28:35.723Z,21.50
2022-08-21T06:31:02.495Z,21.60
2022-08-21T06:33:32.477Z,21.70
2022-08-21T06:35:59.511Z,21.70
2022-08-21T06:38:26.145Z,21.70
2022-08-21T06:40:53.221Z,21.80
2022-08-21T06:43:19.842Z,21.80
2022-08-21T06:45:46.518Z,21.80
2022-08-21T06:48:18.347Z,21.80
2022-08-21T06:50:46.303Z,21.90
2022-08-21T06:53:14.836Z,21.80
2022-08-21T06:55:42.954Z,21.80
2022-08-21T06:58:10.935Z,21.90
2022-08-21T07:00:41.188Z,21.90
2022-08-21T07:03:08.254Z,21.90
2022-08-21T07:05:34.961Z,21.90
2022-08-21T07:08:01.577Z,21.90
2022-08-21T07:10:28.652Z,21.90
2022-08-21T07:12:59.528Z,22.00
2022-08-21T07:15:29.184Z,21.90
2022-08-21T07:17:58.172Z,21.90
2022-08-21T07:20:24.869Z,21.80
2022-08-21T07:22:51.990Z,21.80
2022-08-21T07:25:18.719Z,21.80
2022-08-21T07:27:45.378Z,21.80
2022-08-21T07:30:12.307Z,21.90
2022-08-21T07:32:39.001Z,22.00
2022-08-21T07:35:05.965Z,21.90
2022-08-21T07:37:32.605Z,22.00
2022-08-21T07:39:59.278Z,21.90
2022-08-21T07:42:26.034Z,21.80
2022-08-21T07:44:53.177Z,21.70
2022-08-21T07:47:29.386Z,21.80
2022-08-21T07:50:09.496Z,21.80
2022-08-21T07:52:36.308Z,21.70
2022-08-21T07:55:06.434Z,21.80
2022-08-21T07:57:33.852Z,21.80
2022-08-21T08:00:00.588Z,21.80
2022-08-21T08:02:29.652Z,21.90
2022-08-21T08:05:03.552Z,22.00
2022-08-21T08:07:30.299Z,22.10
2022-08-21T08:09:56.990Z,22.10
2022-08-21T08:12:23.633Z,22.20
2022-08-21T08:14:50.395Z,22.30
2022-08-21T08:17:17.082Z,22.30
2022-08-21T08:19:43.759Z,22.40
2022-08-21T08:22:20.130Z,22.40
2022-08-21T08:24:48.065Z,22.40
2022-08-21T08:27:15.701Z,22.40
2022-08-21T08:29:42.491Z,22.40
2022-08-21T08:32:09.475Z,22.40
2022-08-21T08:34:38.164Z,22.30
2022-08-21T08:37:05.613Z,22.40
2022-08-21T08:39:34.869Z,22.40
2022-08-21T08:42:33.181Z,22.30
2022-08-21T08:45:13.337Z,22.50
2022-08-21T08:47:46.400Z,22.60
2022-08-21T08:50:24.575Z,22.60
2022-08-21T08:53:16.648Z,22.60
2022-08-21T08:55:45.537Z,22.50
2022-08-21T08:58:25.806Z,22.60
2022-08-21T09:00:56.030Z,22.60
2022-08-21T09:03:24.662Z,22.60
2022-08-21T09:06:04.095Z,22.60
2022-08-21T09:08:45.704Z,22.70
2022-08-21T09:11:59.462Z,22.80
2022-08-21T09:14:51.193Z,22.80
2022-08-21T09:17:45.205Z,22.80
2022-08-21T09:20:50.683Z,22.90
2022-08-21T09:23:47.694Z,22.90
2022-08-21T09:26:20.797Z,22.80
2022-08-21T09:28:57.025Z,22.80
2022-08-21T09:31:31.419Z,22.70
2022-08-21T09:34:00.020Z,22.90
2022-08-21T09:36:40.131Z,22.90
2022-08-21T09:39:07.783Z,23.10
2022-08-21T09:41:36.452Z,23.30
2022-08-21T09:44:05.142Z,23.40
2022-08-21T09:46:32.134Z,23.50
2022-08-21T09:49:01.995Z,23.50
2022-08-21T09:51:37.764Z,23.50
2022-08-21T09:54:07.755Z,23.50
2022-08-21T09:56:54.510Z,23.60
2022-08-21T09:59:36.861Z,23.60
2022-08-21T10:02:25.218Z,23.60
2022-08-21T10:05:01.811Z,23.70
2022-08-21T10:07:33.599Z,23.80
2022-08-21T10:10:14.517Z,23.70
2022-08-21T10:13:02.887Z,23.80
2022-08-21T10:15:49.156Z,23.90
2022-08-21T10:18:22.822Z,23.90
2022-08-21T10:21:28.409Z,24.10
2022-08-21T10:24:11.189Z,24.20
2022-08-21T10:26:58.136Z,24.00
2022-08-21T10:29:44.964Z,24.10
2022-08-21T10:32:25.989Z,24.20
2022-08-21T10:35:14.327Z,24.20
2022-08-21T10:38:09.109Z,24.00
2022-08-21T10:40:58.479Z,24.10
2022-08-21T10:43:45.953Z,24.20
2022-08-21T10:46:48.353Z,24.20
2022-08-21T10:49:23.059Z,24.20
2022-08-21T10:52:04.269Z,24.20
2022-08-21T10:54:51.780Z,24.20
2022-08-21T10:57:43.477Z,24.30
2022-08-21T11:00:15.289Z,24.50
2022-08-21T11:02:51.980Z,24.60
2022-08-21T11:05:28.792Z,24.50
2022-08-21T11:08:10.196Z,24.80
2022-08-21T11:10:58.110Z,24.90
2022-08-21T11:13:39.460Z,24.70
2022-08-21T11:16:19.534Z,24.70
2022-08-21T11:19:01.827Z,24.80
2022-08-21T11:21:38.736Z,24.80
2022-08-21T11:24:18.655Z,25.00
2022-08-21T11:27:07.651Z,24.90
2022-08-21T11:29:38.918Z,25.00
2022-08-21T11:32:25.736Z,25.00
2022-08-21T11:35:03.600Z,24.80
2022-08-21T11:37:58.143Z,25.00
2022-08-21T11:40:49.895Z,25.00
2022-08-21T11:43:40.748Z,24.80
2022-08-21T11:46:36.296Z,24.70
2022-08-21T11:49:24.020Z,24.90
2022-08-21T11:52:15.766Z,24.80
2022-08-21T11:54:48.280Z,25.20
2022-08-21T11:57:20.721Z,25.30
2022-08-21T12:00:19.771Z,25.30
2022-08-21T12:02:52.032Z,25.40
2022-08-21T12:05:34.048Z,25.50
2022-08-21T12:08:05.673Z,25.40
2022-08-21T12:10:36.677Z,25.10
2022-08-21T12:13:22.175Z,25.10
2022-08-21T12:16:16.295Z,25.50
2022-08-21T12:18:44.165Z,25.70
2022-08-21T12:21:28.812Z,25.40
2022-08-21T12:24:13.771Z,25.70
2022-08-21T12:26:55.760Z,26.00
2022-08-21T12:29:32.502Z,26.10
2022-08-21T12:32:19.335Z,26.00
2022-08-21T12:34:54.695Z,25.90
2022-08-21T12:38:07.279Z,25.60
2022-08-21T12:40:49.893Z,25.60
2022-08-21T12:43:21.330Z,25.50
2022-08-21T12:45:51.894Z,25.30
2022-08-21T12:48:36.768Z,25.50
2022-08-21T12:51:13.010Z,25.10
2022-08-21T12:53:52.063Z,25.20
2022-08-21T12:56:21.837Z,25.20
2022-08-21T12:58:57.287Z,25.40
2022-08-21T13:01:31.449Z,25.10
2022-08-21T13:04:21.239Z,25.10
2022-08-21T13:06:52.747Z,25.50
2022-08-21T13:09:26.768Z,25.60
2022-08-21T13:11:54.364Z,26.10
2022-08-21T13:14:31.296Z,25.90
2022-08-21T13:16:59.707Z,26.30
2022-08-21T13:19:27.381Z,26.20
2022-08-21T13:21:54.384Z,26.30
2022-08-21T13:24:43.081Z,26.30
2022-08-21T13:27:23.120Z,26.10
2022-08-21T13:30:01.518Z,25.80
2022-08-21T13:32:32.085Z,25.70
2022-08-21T13:35:00.826Z,26.10
2022-08-21T13:37:29.890Z,26.00
2022-08-21T13:39:56.682Z,25.90
2022-08-21T13:42:25.403Z,25.80
2022-08-21T13:44:54.424Z,25.50
2022-08-21T13:47:21.668Z,25.60
2022-08-21T13:49:57.077Z,26.00
2022-08-21T13:52:27.991Z,26.20
2022-08-21T13:55:00.668Z,26.10
2022-08-21T13:57:30.721Z,25.70
2022-08-21T14:00:14.707Z,25.50
2022-08-21T14:02:45.189Z,25.20
2022-08-21T14:05:28.067Z,25.30
2022-08-21T14:08:12.763Z,25.20
2022-08-21T14:10:57.224Z,25.30
2022-08-21T14:13:59.026Z,26.10
2022-08-21T14:16:47.445Z,26.20
2022-08-21T14:19:26.746Z,25.80
2022-08-21T14:21:55.483Z,25.80
2022-08-21T14:24:24.972Z,25.70
2022-08-21T14:27:08.321Z,25.80
2022-08-21T14:29:42.090Z,25.90
2022-08-21T14:32:37.237Z,25.70
2022-08-21T14:35:04.101Z,26.00
2022-08-21T14:37:30.764Z,25.80
2022-08-21T14:39:57.457Z,25.90
2022-08-21T14:42:25.155Z,26.10
2022-08-21T14:44:52.411Z,26.20
2022-08-21T14:47:19.043Z,26.40
2022-08-21T14:49:45.744Z,26.20
2022-08-21T14:52:12.368Z,25.90
2022-08-21T14:54:39.064Z,26.00
2022-08-21T14:57:11.303Z,26.00
2022-08-21T14:59:38.559Z,26.00
2022-08-21T15:02:05.685Z,26.00
2022-08-21T15:04:33.802Z,25.80
2022-08-21T15:07:00.782Z,25.80
2022-08-21T15:09:27.663Z,25.80
2022-08-21T15:11:57.816Z,26.00
2022-08-21T15:14:27.629Z,26.10
2022-08-21T15:16:54.395Z,26.00
2022-08-21T15:19:21.083Z,25.80
2022-08-21T15:21:47.843Z,25.70
2022-08-21T15:24:14.477Z,25.60
2022-08-21T15:26:41.162Z,25.70
2022-08-21T15:29:09.427Z,25.60
2022-08-21T15:31:37.373Z,25.50
2022-08-21T15:34:04.181Z,25.50
2022-08-21T15:36:30.800Z,25.50
2022-08-21T15:38:57.431Z,25.50
2022-08-21T15:41:24.093Z,25.40
2022-08-21T15:43:53.823Z,25.40
2022-08-21T15:46:21.660Z,25.30
2022-08-21T15:48:48.730Z,25.20
2022-08-21T15:51:17.581Z,25.20
2022-08-21T15:53:45.509Z,25.20
2022-08-21T15:56:23.688Z,25.30
2022-08-21T15:58:52.344Z,25.50
2022-08-21T16:01:20.144Z,25.50
2022-08-21T16:03:50.322Z,25.40
2022-08-21T16:06:17.084Z,25.50
2022-08-21T16:08:43.760Z,25.50
2022-08-21T16:11:14.147Z,25.60
2022-08-21T16:13:46.095Z,25.70
2022-08-21T16:16:16.037Z,25.70
2022-08-21T16:18:42.925Z,25.60
2022-08-21T16:21:09.779Z,25.50
2022-08-21T16:23:38.233Z,25.40
2022-08-21T16:26:05.803Z,25.40
2022-08-21T16:28:38.604Z,25.50
2022-08-21T16:31:05.218Z,25.50
2022-08-21T16:33:44.967Z,25.50
2022-08-21T16:36:12.375Z,25.50
2022-08-21T16:38:39.530Z,25.40
2022-08-21T16:41:09.887Z,25.40
2022-08-21T16:43:41.602Z,25.40
2022-08-21T16:46:11.405Z,25.40
2022-08-21T16:48:38.987Z,25.40
2022-08-21T16:51:06.429Z,25.40
2022-08-21T16:53:33.198Z,25.40
2022-08-21T16:56:00.067Z,25.40
2022-08-21T16:58:31.109Z,25.50
2022-08-21T17:00:59.515Z,25.50
2022-08-21T17:03:32.297Z,25.50
2022-08-21T17:05:58.955Z,25.40
2022-08-21T17:08:25.626Z,25.50
2022-08-21T17:10:53.153Z,25.40
2022-08-21T17:13:20.216Z,25.40
2022-08-21T17:15:49.019Z,25.40
2022-08-21T17:18:18.820Z,25.40
2022-08-21T17:20:45.821Z,25.50
2022-08-21T17:23:12.458Z,25.50
2022-08-21T17:25:43.347Z,25.50
2022-08-21T17:28:16.798Z,25.50
2022-08-21T17:30:46.282Z,25.50
2022-08-21T17:33:18.289Z,25.50
2022-08-21T17:35:45.684Z,25.50
2022-08-21T17:38:14.779Z,25.50
2022-08-21T17:40:42.487Z,25.50
2022-08-21T17:43:13.042Z,25.50
2022-08-21T17:45:41.182Z,25.50
2022-08-21T17:48:08.347Z,25.50
2022-08-21T17:50:36.345Z,25.50
2022-08-21T17:53:03.366Z,25.50
2022-08-21T17:55:30.727Z,25.50
2022-08-21T17:57:58.544Z,25.50
2022-08-21T18:00:26.368Z,25.50
2022-08-21T18:03:14.754Z,25.50
2022-08-21T18:05:43.264Z,25.50
2022-08-21T18:08:09.970Z,25.50
2022-08-21T18:10:38.637Z,25.60
2022-08-21T18:13:08.139Z,25.50
2022-08-21T18:15:35.104Z,25.50
2022-08-21T18:18:02.741Z,25.50
2022-08-21T18:20:29.536Z,25.50
2022-08-21T18:22:56.439Z,25.40
2022-08-21T18:25:23.339Z,25.50
2022-08-21T18:27:50.738Z,25.40
2022-08-21T18:30:20.051Z,25.50
2022-08-21T18:32:47.410Z,25.40
2022-08-21T18:35:16.509Z,25.40
2022-08-21T18:37:44.313Z,25.40
2022-08-21T18:40:11.306Z,25.40
2022-08-21T18:42:49.703Z,25.40
2022-08-21T18:45:23.033Z,25.50
2022-08-21T18:47:52.380Z,25.40
2022-08-21T18:50:21.513Z,25.50
2022-08-21T18:52:52.732Z,25.50
2022-08-21T18:55:21.631Z,25.50
2022-08-21T18:57:48.519Z,25.40
2022-08-21T19:00:19.231Z,25.40
2022-08-21T19:02:48.011Z,25.50
2022-08-21T19:05:17.658Z,25.50
2022-08-21T19:07:44.394Z,25.50
2022-08-21T19:10:29.286Z,25.50
2022-08-21T19:12:59.609Z,25.50
2022-08-21T19:15:26.956Z,25.50
2022-08-21T19:17:55.822Z,25.40
2022-08-21T19:20:29.821Z,25.40
2022-08-21T19:22:56.922Z,25.40
2022-08-21T19:25:32.945Z,25.40
2022-08-21T19:28:11.471Z,25.40
2022-08-21T19:30:47.898Z,25.40
2022-08-21T19:33:23.846Z,25.40
2022-08-21T19:35:52.420Z,25.40
2022-08-21T19:38:19.843Z,25.40
2022-08-21T19:40:46.814Z,25.40
2022-08-21T19:43:14.181Z,25.40
2022-08-21T19:45:41.229Z,25.40
2022-08-21T19:48:08.409Z,25.40
2022-08-21T19:50:35.157Z,25.40
2022-08-21T19:53:02.298Z,25.40
2022-08-21T19:55:29.368Z,25.40
2022-08-21T19:57:56.233Z,25.40
2022-08-21T20:00:24.031Z,25.40
2022-08-21T20:02:52.551Z,25.30
2022-08-21T20:05:19.357Z,25.30
2022-08-21T20:07:48.299Z,25.30
2022-08-21T20:10:15.053Z,25.30
2022-08-21T20:12:42.754Z,25.20
2022-08-21T20:15:10.312Z,25.20
2022-08-21T20:17:38.712Z,25.20
2022-08-21T20:20:05.935Z,25.20
2022-08-21T20:22:32.677Z,25.20
2022-08-21T20:24:59.440Z,25.10
2022-08-21T20:27:27.545Z,25.10
2022-08-21T20:30:01.783Z,25.10
2022-08-21T20:32:28.595Z,25.00
2022-08-21T20:34:55.222Z,25.00
2022-08-21T20:37:37.096Z,25.10
2022-08-21T20:40:12.560Z,25.10
2022-08-21T20:42:48.111Z,25.10
2022-08-21T20:45:22.384Z,25.10
2022-08-21T20:47:52.724Z,25.10
2022-08-21T20:50:24.899Z,25.10
2022-08-21T20:52:56.071Z,25.20
2022-08-21T20:55:29.109Z,25.10
2022-08-21T20:58:03.085Z,25.00
2022-08-21T21:00:34.853Z,25.00
2022-08-21T21:03:33.700Z,25.00
2022-08-21T21:06:10.622Z,25.00
2022-08-21T21:08:46.819Z,25.00
2022-08-21T21:11:34.584Z,25.00
2022-08-21T21:14:15.356Z,25.00
2022-08-21T21:16:51.401Z,24.90
2022-08-21T21:19:30.160Z,24.90
2022-08-21T21:22:13.228Z,24.90
2022-08-21T21:25:12.127Z,24.90
2022-08-21T21:30:36.170Z,25.00
2022-08-21T21:33:04.092Z,24.90
2022-08-21T21:36:11.632Z,24.90
2022-08-21T21:38:54.089Z,24.90
2022-08-21T21:41:34.144Z,24.80
2022-08-21T21:44:06.586Z,24.90
2022-08-21T21:46:55.129Z,24.90
2022-08-21T21:49:30.836Z,24.90
2022-08-21T21:52:23.902Z,24.80
2022-08-21T21:55:23.760Z,24.90
2022-08-21T21:58:16.787Z,24.80
2022-08-21T22:00:52.348Z,24.80
2022-08-21T22:03:29.396Z,24.90
2022-08-21T22:06:29.398Z,24.80
2022-08-21T22:09:03.039Z,24.90
2022-08-21T22:11:45.951Z,25.00
2022-08-21T22:14:15.881Z,25.00
2022-08-21T22:16:45.345Z,25.00
2022-08-21T22:19:24.203Z,25.00
2022-08-21T22:22:15.443Z,25.00
2022-08-21T22:24:47.869Z,25.00
2022-08-21T22:27:28.895Z,25.00
2022-08-21T22:30:02.492Z,24.90
2022-08-21T22:32:39.369Z,24.90
2022-08-21T22:35:25.886Z,24.80
2022-08-21T22:38:01.345Z,24.90
2022-08-21T22:40:35.152Z,24.90
2022-08-21T22:43:07.769Z,24.90
2022-08-21T22:45:57.345Z,24.90
2022-08-21T22:48:29.436Z,24.90
2022-08-21T22:51:09.892Z,24.90
2022-08-21T22:53:41.109Z,24.90
2022-08-21T22:56:08.923Z,24.80
2022-08-21T22:58:52.949Z,24.80
2022-08-21T23:01:22.516Z,24.80
2022-08-21T23:03:54.999Z,24.80
2022-08-21T23:06:29.397Z,24.80
2022-08-21T23:09:01.765Z,24.70
2022-08-21T23:11:42.697Z,24.80
2022-08-21T23:14:14.115Z,24.70
2022-08-21T23:17:01.349Z,24.70
2022-08-21T23:19:56.506Z,24.70
2022-08-21T23:22:47.331Z,24.70
2022-08-21T23:25:29.423Z,24.70
2022-08-21T23:28:14.173Z,24.70
2022-08-21T23:31:16.389Z,24.70
2022-08-21T23:34:09.789Z,24.60
2022-08-21T23:37:49.168Z,24.60
2022-08-21T23:43:54.426Z,24.60
2022-08-21T23:46:45.904Z,24.60
2022-08-21T23:49:28.108Z,24.60
2022-08-21T23:52:15.461Z,24.60
2022-08-21T23:55:06.713Z,24.60
2022-08-21T23:58:04.573Z,24.60
